sensor_id;sensor_type;location;lat;lon;timestamp;P1;durP1;ratioP1;P2;durP2;ratioP2
38609;SDS011;24367;51.640;9.566;2023-10-08T00:02:16;6.15;;;3.80;;
38609;SDS011;24367;51.640;9.566;2023-10-08T00:04:47;5.03;;;3.30;;
38609;SDS011;24367;51.640;9.566;2023-10-08T00:07:16;4.90;;;3.28;;
38609;SDS011;24367;51.640;9.566;2023-10-08T00:09:46;6.03;;;3.40;;
38609;SDS011;24367;51.640;9.566;2023-10-08T00:12:13;5.20;;;3.58;;
38609;SDS011;24367;51.640;9.566;2023-10-08T00:14:41;4.65;;;3.30;;
38609;SDS011;24367;51.640;9.566;2023-10-08T00:17:11;5.43;;;3.47;;
38609;SDS011;24367;51.640;9.566;2023-10-08T00:19:39;4.10;;;3.17;;
38609;SDS011;24367;51.640;9.566;2023-10-08T00:22:08;4.63;;;3.00;;
38609;SDS011;24367;51.640;9.566;2023-10-08T00:24:35;5.63;;;3.45;;
38609;SDS011;24367;51.640;9.566;2023-10-08T00:27:06;5.32;;;3.15;;
38609;SDS011;24367;51.640;9.566;2023-10-08T00:29:33;5.95;;;3.60;;
38609;SDS011;24367;51.640;9.566;2023-10-08T00:31:59;5.38;;;3.50;;
38609;SDS011;24367;51.640;9.566;2023-10-08T00:34:38;5.45;;;3.63;;
38609;SDS011;24367;51.640;9.566;2023-10-08T00:37:07;4.70;;;3.40;;
38609;SDS011;24367;51.640;9.566;2023-10-08T00:39:35;4.43;;;3.33;;
38609;SDS011;24367;51.640;9.566;2023-10-08T00:42:03;4.95;;;3.30;;
38609;SDS011;24367;51.640;9.566;2023-10-08T00:44:32;4.82;;;3.13;;
38609;SDS011;24367;51.640;9.566;2023-10-08T00:47:03;5.78;;;3.33;;
38609;SDS011;24367;51.640;9.566;2023-10-08T00:49:31;7.25;;;3.67;;
38609;SDS011;24367;51.640;9.566;2023-10-08T00:52:29;5.20;;;3.58;;
38609;SDS011;24367;51.640;9.566;2023-10-08T00:55:03;5.07;;;3.20;;
38609;SDS011;24367;51.640;9.566;2023-10-08T00:57:34;6.28;;;3.13;;
38609;SDS011;24367;51.640;9.566;2023-10-08T01:00:02;4.05;;;2.90;;
38609;SDS011;24367;51.640;9.566;2023-10-08T01:02:31;4.55;;;3.10;;
38609;SDS011;24367;51.640;9.566;2023-10-08T01:05:10;4.25;;;3.08;;
38609;SDS011;24367;51.640;9.566;2023-10-08T01:07:39;5.82;;;3.08;;
38609;SDS011;24367;51.640;9.566;2023-10-08T01:10:09;4.53;;;3.22;;
38609;SDS011;24367;51.640;9.566;2023-10-08T01:12:38;5.03;;;3.85;;
38609;SDS011;24367;51.640;9.566;2023-10-08T01:15:19;4.63;;;3.45;;
38609;SDS011;24367;51.640;9.566;2023-10-08T01:17:53;4.43;;;3.13;;
38609;SDS011;24367;51.640;9.566;2023-10-08T01:20:25;6.20;;;3.40;;
38609;SDS011;24367;51.640;9.566;2023-10-08T01:23:01;4.93;;;3.30;;
38609;SDS011;24367;51.640;9.566;2023-10-08T01:25:34;5.05;;;3.17;;
38609;SDS011;24367;51.640;9.566;2023-10-08T01:28:01;3.97;;;3.03;;
38609;SDS011;24367;51.640;9.566;2023-10-08T01:30:33;3.90;;;3.10;;
38609;SDS011;24367;51.640;9.566;2023-10-08T01:33:01;4.13;;;3.13;;
38609;SDS011;24367;51.640;9.566;2023-10-08T01:35:29;4.22;;;3.20;;
38609;SDS011;24367;51.640;9.566;2023-10-08T01:37:57;4.28;;;3.03;;
38609;SDS011;24367;51.640;9.566;2023-10-08T01:40:26;5.22;;;3.20;;
38609;SDS011;24367;51.640;9.566;2023-10-08T01:42:54;5.07;;;2.92;;
38609;SDS011;24367;51.640;9.566;2023-10-08T01:45:25;5.65;;;3.45;;
38609;SDS011;24367;51.640;9.566;2023-10-08T01:47:51;5.15;;;3.25;;
38609;SDS011;24367;51.640;9.566;2023-10-08T01:50:20;4.18;;;2.92;;
38609;SDS011;24367;51.640;9.566;2023-10-08T01:52:47;4.10;;;3.00;;
38609;SDS011;24367;51.640;9.566;2023-10-08T01:55:14;5.65;;;3.15;;
38609;SDS011;24367;51.640;9.566;2023-10-08T01:57:44;4.63;;;3.15;;
38609;SDS011;24367;51.640;9.566;2023-10-08T02:00:11;5.00;;;3.50;;
38609;SDS011;24367;51.640;9.566;2023-10-08T02:02:39;4.53;;;3.10;;
38609;SDS011;24367;51.640;9.566;2023-10-08T02:05:06;4.03;;;3.13;;
38609;SDS011;24367;51.640;9.566;2023-10-08T02:07:33;4.38;;;3.10;;
38609;SDS011;24367;51.640;9.566;2023-10-08T02:09:59;4.03;;;2.97;;
38609;SDS011;24367;51.640;9.566;2023-10-08T02:12:26;4.32;;;3.33;;
38609;SDS011;24367;51.640;9.566;2023-10-08T02:14:54;4.68;;;3.20;;
38609;SDS011;24367;51.640;9.566;2023-10-08T02:17:22;5.53;;;3.00;;
38609;SDS011;24367;51.640;9.566;2023-10-08T02:19:48;4.57;;;3.08;;
38609;SDS011;24367;51.640;9.566;2023-10-08T02:22:14;4.53;;;3.08;;
38609;SDS011;24367;51.640;9.566;2023-10-08T02:24:41;5.82;;;3.05;;
38609;SDS011;24367;51.640;9.566;2023-10-08T02:27:08;5.22;;;3.08;;
38609;SDS011;24367;51.640;9.566;2023-10-08T02:29:35;4.30;;;2.95;;
38609;SDS011;24367;51.640;9.566;2023-10-08T02:32:03;4.68;;;2.97;;
38609;SDS011;24367;51.640;9.566;2023-10-08T02:34:31;4.68;;;3.08;;
38609;SDS011;24367;51.640;9.566;2023-10-08T02:36:58;4.25;;;3.20;;
38609;SDS011;24367;51.640;9.566;2023-10-08T02:39:24;3.58;;;2.80;;
38609;SDS011;24367;51.640;9.566;2023-10-08T02:41:51;3.92;;;3.15;;
38609;SDS011;24367;51.640;9.566;2023-10-08T02:44:21;3.95;;;2.90;;
38609;SDS011;24367;51.640;9.566;2023-10-08T02:46:49;5.18;;;3.00;;
38609;SDS011;24367;51.640;9.566;2023-10-08T02:49:18;5.13;;;3.65;;
38609;SDS011;24367;51.640;9.566;2023-10-08T02:51:46;4.13;;;3.10;;
38609;SDS011;24367;51.640;9.566;2023-10-08T02:54:15;4.13;;;3.38;;
38609;SDS011;24367;51.640;9.566;2023-10-08T02:56:43;4.70;;;3.30;;
38609;SDS011;24367;51.640;9.566;2023-10-08T02:59:11;5.10;;;3.35;;
38609;SDS011;24367;51.640;9.566;2023-10-08T03:01:38;4.15;;;2.80;;
38609;SDS011;24367;51.640;9.566;2023-10-08T03:04:06;4.32;;;3.08;;
38609;SDS011;24367;51.640;9.566;2023-10-08T03:09:07;4.57;;;2.80;;
38609;SDS011;24367;51.640;9.566;2023-10-08T03:11:34;3.80;;;2.92;;
38609;SDS011;24367;51.640;9.566;2023-10-08T03:14:02;4.03;;;2.65;;
38609;SDS011;24367;51.640;9.566;2023-10-08T03:16:30;4.40;;;3.10;;
38609;SDS011;24367;51.640;9.566;2023-10-08T03:18:59;4.93;;;3.50;;
38609;SDS011;24367;51.640;9.566;2023-10-08T03:21:26;4.80;;;3.10;;
38609;SDS011;24367;51.640;9.566;2023-10-08T03:24:08;5.50;;;3.40;;
38609;SDS011;24367;51.640;9.566;2023-10-08T03:26:49;3.80;;;2.90;;
38609;SDS011;24367;51.640;9.566;2023-10-08T03:29:20;4.25;;;2.92;;
38609;SDS011;24367;51.640;9.566;2023-10-08T03:31:49;4.75;;;3.30;;
38609;SDS011;24367;51.640;9.566;2023-10-08T03:34:18;4.20;;;2.97;;
38609;SDS011;24367;51.640;9.566;2023-10-08T03:36:46;3.83;;;2.88;;
38609;SDS011;24367;51.640;9.566;2023-10-08T03:39:16;4.25;;;2.75;;
38609;SDS011;24367;51.640;9.566;2023-10-08T03:41:44;4.05;;;2.85;;
38609;SDS011;24367;51.640;9.566;2023-10-08T03:44:24;4.10;;;3.10;;
38609;SDS011;24367;51.640;9.566;2023-10-08T03:46:54;4.32;;;3.08;;
38609;SDS011;24367;51.640;9.566;2023-10-08T03:49:22;3.83;;;2.88;;
38609;SDS011;24367;51.640;9.566;2023-10-08T03:51:51;4.35;;;3.03;;
38609;SDS011;24367;51.640;9.566;2023-10-08T03:54:20;3.97;;;3.13;;
38609;SDS011;24367;51.640;9.566;2023-10-08T03:56:54;4.45;;;3.20;;
38609;SDS011;24367;51.640;9.566;2023-10-08T03:59:22;3.58;;;2.85;;
38609;SDS011;24367;51.640;9.566;2023-10-08T04:01:56;3.55;;;2.75;;
38609;SDS011;24367;51.640;9.566;2023-10-08T04:04:26;3.65;;;2.58;;
38609;SDS011;24367;51.640;9.566;2023-10-08T04:07:08;3.92;;;2.63;;
38609;SDS011;24367;51.640;9.566;2023-10-08T04:09:49;3.88;;;2.75;;
38609;SDS011;24367;51.640;9.566;2023-10-08T04:12:24;3.97;;;2.70;;
38609;SDS011;24367;51.640;9.566;2023-10-08T04:14:52;5.88;;;2.95;;
38609;SDS011;24367;51.640;9.566;2023-10-08T04:17:21;3.60;;;2.58;;
38609;SDS011;24367;51.640;9.566;2023-10-08T04:19:48;4.75;;;3.22;;
38609;SDS011;24367;51.640;9.566;2023-10-08T04:22:14;3.70;;;2.67;;
38609;SDS011;24367;51.640;9.566;2023-10-08T04:24:43;4.10;;;2.80;;
38609;SDS011;24367;51.640;9.566;2023-10-08T04:27:11;3.97;;;2.92;;
38609;SDS011;24367;51.640;9.566;2023-10-08T04:29:40;3.55;;;2.40;;
38609;SDS011;24367;51.640;9.566;2023-10-08T04:32:08;4.38;;;2.80;;
38609;SDS011;24367;51.640;9.566;2023-10-08T04:34:37;3.53;;;2.40;;
38609;SDS011;24367;51.640;9.566;2023-10-08T04:37:09;3.65;;;2.67;;
38609;SDS011;24367;51.640;9.566;2023-10-08T04:39:37;4.22;;;2.53;;
38609;SDS011;24367;51.640;9.566;2023-10-08T04:42:06;3.72;;;2.55;;
38609;SDS011;24367;51.640;9.566;2023-10-08T04:44:37;4.22;;;2.78;;
38609;SDS011;24367;51.640;9.566;2023-10-08T04:47:06;3.05;;;2.40;;
38609;SDS011;24367;51.640;9.566;2023-10-08T04:49:33;3.83;;;2.40;;
38609;SDS011;24367;51.640;9.566;2023-10-08T04:52:04;3.53;;;2.67;;
38609;SDS011;24367;51.640;9.566;2023-10-08T04:54:39;3.45;;;2.30;;
38609;SDS011;24367;51.640;9.566;2023-10-08T04:57:07;3.10;;;2.13;;
38609;SDS011;24367;51.640;9.566;2023-10-08T04:59:41;3.53;;;2.53;;
38609;SDS011;24367;51.640;9.566;2023-10-08T05:02:08;2.22;;;1.20;;
38609;SDS011;24367;51.640;9.566;2023-10-08T05:04:44;1.58;;;0.63;;
38609;SDS011;24367;51.640;9.566;2023-10-08T05:07:32;2.15;;;1.17;;
38609;SDS011;24367;51.640;9.566;2023-10-08T05:10:13;2.70;;;1.48;;
38609;SDS011;24367;51.640;9.566;2023-10-08T05:12:54;3.80;;;1.20;;
38609;SDS011;24367;51.640;9.566;2023-10-08T05:15:42;3.28;;;1.80;;
38609;SDS011;24367;51.640;9.566;2023-10-08T05:18:27;4.25;;;1.77;;
38609;SDS011;24367;51.640;9.566;2023-10-08T05:21:13;2.55;;;1.58;;
38609;SDS011;24367;51.640;9.566;2023-10-08T05:23:50;2.25;;;1.20;;
38609;SDS011;24367;51.640;9.566;2023-10-08T05:26:35;2.72;;;1.40;;
38609;SDS011;24367;51.640;9.566;2023-10-08T05:29:07;2.90;;;1.67;;
38609;SDS011;24367;51.640;9.566;2023-10-08T05:31:49;2.70;;;1.50;;
38609;SDS011;24367;51.640;9.566;2023-10-08T05:34:39;2.58;;;1.30;;
38609;SDS011;24367;51.640;9.566;2023-10-08T05:37:16;2.28;;;1.40;;
38609;SDS011;24367;51.640;9.566;2023-10-08T05:40:12;2.40;;;1.40;;
38609;SDS011;24367;51.640;9.566;2023-10-08T05:42:46;3.10;;;1.48;;
38609;SDS011;24367;51.640;9.566;2023-10-08T05:45:14;3.38;;;1.70;;
38609;SDS011;24367;51.640;9.566;2023-10-08T05:47:54;2.30;;;1.45;;
38609;SDS011;24367;51.640;9.566;2023-10-08T05:50:33;1.95;;;1.23;;
38609;SDS011;24367;51.640;9.566;2023-10-08T05:53:08;1.70;;;1.13;;
38609;SDS011;24367;51.640;9.566;2023-10-08T05:55:46;5.68;;;1.40;;
38609;SDS011;24367;51.640;9.566;2023-10-08T05:58:26;4.47;;;1.45;;
38609;SDS011;24367;51.640;9.566;2023-10-08T06:01:00;2.72;;;1.23;;
38609;SDS011;24367;51.640;9.566;2023-10-08T06:03:31;2.28;;;1.27;;
38609;SDS011;24367;51.640;9.566;2023-10-08T06:06:13;2.13;;;1.23;;
38609;SDS011;24367;51.640;9.566;2023-10-08T06:09:01;1.73;;;1.15;;
38609;SDS011;24367;51.640;9.566;2023-10-08T06:11:36;2.28;;;1.20;;
38609;SDS011;24367;51.640;9.566;2023-10-08T06:14:21;2.50;;;1.15;;
38609;SDS011;24367;51.640;9.566;2023-10-08T06:17:01;2.95;;;1.38;;
38609;SDS011;24367;51.640;9.566;2023-10-08T06:19:38;2.60;;;1.30;;
38609;SDS011;24367;51.640;9.566;2023-10-08T06:22:05;1.95;;;1.08;;
38609;SDS011;24367;51.640;9.566;2023-10-08T06:24:32;1.73;;;0.93;;
38609;SDS011;24367;51.640;9.566;2023-10-08T06:27:05;3.05;;;1.30;;
38609;SDS011;24367;51.640;9.566;2023-10-08T06:29:32;1.65;;;0.80;;
38609;SDS011;24367;51.640;9.566;2023-10-08T06:31:58;2.00;;;1.08;;
38609;SDS011;24367;51.640;9.566;2023-10-08T06:34:27;1.83;;;1.10;;
38609;SDS011;24367;51.640;9.566;2023-10-08T06:36:55;2.33;;;1.10;;
38609;SDS011;24367;51.640;9.566;2023-10-08T06:39:22;3.30;;;1.10;;
38609;SDS011;24367;51.640;9.566;2023-10-08T06:41:58;2.45;;;1.08;;
38609;SDS011;24367;51.640;9.566;2023-10-08T06:44:29;2.45;;;1.45;;
38609;SDS011;24367;51.640;9.566;2023-10-08T06:46:56;2.75;;;1.10;;
38609;SDS011;24367;51.640;9.566;2023-10-08T06:49:23;2.08;;;1.20;;
38609;SDS011;24367;51.640;9.566;2023-10-08T06:51:50;2.85;;;1.00;;
38609;SDS011;24367;51.640;9.566;2023-10-08T06:54:17;2.08;;;1.02;;
38609;SDS011;24367;51.640;9.566;2023-10-08T06:56:43;2.28;;;0.90;;
38609;SDS011;24367;51.640;9.566;2023-10-08T06:59:12;1.90;;;1.00;;
38609;SDS011;24367;51.640;9.566;2023-10-08T07:01:40;2.92;;;1.10;;
38609;SDS011;24367;51.640;9.566;2023-10-08T07:04:11;1.95;;;1.10;;
38609;SDS011;24367;51.640;9.566;2023-10-08T07:06:38;2.58;;;1.20;;
38609;SDS011;24367;51.640;9.566;2023-10-08T07:09:05;2.50;;;1.02;;
38609;SDS011;24367;51.640;9.566;2023-10-08T07:11:38;1.75;;;0.90;;
38609;SDS011;24367;51.640;9.566;2023-10-08T07:14:09;1.50;;;0.80;;
38609;SDS011;24367;51.640;9.566;2023-10-08T07:16:36;2.03;;;0.93;;
38609;SDS011;24367;51.640;9.566;2023-10-08T07:19:03;2.88;;;0.90;;
38609;SDS011;24367;51.640;9.566;2023-10-08T07:21:41;4.40;;;1.20;;
38609;SDS011;24367;51.640;9.566;2023-10-08T07:24:09;7.80;;;1.38;;
38609;SDS011;24367;51.640;9.566;2023-10-08T07:26:40;4.35;;;0.70;;
38609;SDS011;24367;51.640;9.566;2023-10-08T07:29:12;6.32;;;1.10;;
38609;SDS011;24367;51.640;9.566;2023-10-08T07:31:42;6.03;;;1.42;;
38609;SDS011;24367;51.640;9.566;2023-10-08T07:34:15;7.65;;;1.15;;
38609;SDS011;24367;51.640;9.566;2023-10-08T07:36:43;4.78;;;1.27;;
38609;SDS011;24367;51.640;9.566;2023-10-08T07:39:12;4.68;;;1.20;;
38609;SDS011;24367;51.640;9.566;2023-10-08T07:41:51;5.65;;;1.13;;
38609;SDS011;24367;51.640;9.566;2023-10-08T07:44:19;3.60;;;0.90;;
38609;SDS011;24367;51.640;9.566;2023-10-08T07:46:46;4.38;;;0.90;;
38609;SDS011;24367;51.640;9.566;2023-10-08T07:49:12;3.72;;;1.08;;
38609;SDS011;24367;51.640;9.566;2023-10-08T07:51:40;2.17;;;0.90;;
38609;SDS011;24367;51.640;9.566;2023-10-08T07:54:14;5.20;;;1.40;;
38609;SDS011;24367;51.640;9.566;2023-10-08T07:56:41;6.53;;;1.20;;
38609;SDS011;24367;51.640;9.566;2023-10-08T07:59:08;3.70;;;1.08;;
38609;SDS011;24367;51.640;9.566;2023-10-08T08:01:37;6.47;;;1.08;;
38609;SDS011;24367;51.640;9.566;2023-10-08T08:04:04;4.25;;;1.00;;
38609;SDS011;24367;51.640;9.566;2023-10-08T08:06:36;3.22;;;1.00;;
38609;SDS011;24367;51.640;9.566;2023-10-08T08:09:03;6.03;;;1.10;;
38609;SDS011;24367;51.640;9.566;2023-10-08T08:11:42;5.55;;;1.00;;
38609;SDS011;24367;51.640;9.566;2023-10-08T08:14:11;2.85;;;1.00;;
38609;SDS011;24367;51.640;9.566;2023-10-08T08:16:37;4.65;;;1.20;;
38609;SDS011;24367;51.640;9.566;2023-10-08T08:19:04;6.65;;;1.40;;
38609;SDS011;24367;51.640;9.566;2023-10-08T08:21:30;6.47;;;1.45;;
38609;SDS011;24367;51.640;9.566;2023-10-08T08:23:58;3.85;;;1.30;;
38609;SDS011;24367;51.640;9.566;2023-10-08T08:26:30;6.55;;;1.20;;
38609;SDS011;24367;51.640;9.566;2023-10-08T08:29:04;4.53;;;1.00;;
38609;SDS011;24367;51.640;9.566;2023-10-08T08:31:34;3.78;;;1.10;;
38609;SDS011;24367;51.640;9.566;2023-10-08T08:34:01;6.32;;;1.13;;
38609;SDS011;24367;51.640;9.566;2023-10-08T08:36:33;3.78;;;1.15;;
38609;SDS011;24367;51.640;9.566;2023-10-08T08:39:04;9.60;;;1.30;;
38609;SDS011;24367;51.640;9.566;2023-10-08T08:41:36;3.40;;;1.10;;
38609;SDS011;24367;51.640;9.566;2023-10-08T08:44:03;6.90;;;1.33;;
38609;SDS011;24367;51.640;9.566;2023-10-08T08:46:32;4.20;;;1.20;;
38609;SDS011;24367;51.640;9.566;2023-10-08T08:49:01;5.60;;;1.40;;
38609;SDS011;24367;51.640;9.566;2023-10-08T08:51:30;2.80;;;1.20;;
38609;SDS011;24367;51.640;9.566;2023-10-08T08:53:57;3.90;;;1.52;;
38609;SDS011;24367;51.640;9.566;2023-10-08T08:56:26;6.53;;;1.42;;
38609;SDS011;24367;51.640;9.566;2023-10-08T08:58:55;4.30;;;1.63;;
38609;SDS011;24367;51.640;9.566;2023-10-08T09:01:21;3.60;;;1.25;;
38609;SDS011;24367;51.640;9.566;2023-10-08T09:03:48;3.25;;;1.38;;
38609;SDS011;24367;51.640;9.566;2023-10-08T09:06:15;5.32;;;1.48;;
38609;SDS011;24367;51.640;9.566;2023-10-08T09:08:42;8.40;;;1.88;;
38609;SDS011;24367;51.640;9.566;2023-10-08T09:11:13;4.38;;;1.52;;
38609;SDS011;24367;51.640;9.566;2023-10-08T09:13:42;7.07;;;1.40;;
38609;SDS011;24367;51.640;9.566;2023-10-08T09:16:11;6.65;;;1.70;;
38609;SDS011;24367;51.640;9.566;2023-10-08T09:18:38;6.95;;;1.65;;
38609;SDS011;24367;51.640;9.566;2023-10-08T09:21:12;3.95;;;1.42;;
38609;SDS011;24367;51.640;9.566;2023-10-08T09:23:40;5.35;;;1.77;;
38609;SDS011;24367;51.640;9.566;2023-10-08T09:26:10;5.60;;;1.65;;
38609;SDS011;24367;51.640;9.566;2023-10-08T09:28:39;8.43;;;2.05;;
38609;SDS011;24367;51.640;9.566;2023-10-08T09:31:10;5.45;;;1.40;;
38609;SDS011;24367;51.640;9.566;2023-10-08T09:33:37;7.20;;;1.77;;
38609;SDS011;24367;51.640;9.566;2023-10-08T09:36:04;6.30;;;1.85;;
38609;SDS011;24367;51.640;9.566;2023-10-08T09:38:32;3.97;;;1.60;;
38609;SDS011;24367;51.640;9.566;2023-10-08T09:40:59;9.40;;;1.80;;
38609;SDS011;24367;51.640;9.566;2023-10-08T09:43:27;8.52;;;2.47;;
38609;SDS011;24367;51.640;9.566;2023-10-08T09:45:54;7.80;;;1.95;;
38609;SDS011;24367;51.640;9.566;2023-10-08T09:48:26;6.63;;;1.70;;
38609;SDS011;24367;51.640;9.566;2023-10-08T09:50:55;5.50;;;1.52;;
38609;SDS011;24367;51.640;9.566;2023-10-08T09:53:25;5.57;;;1.58;;
38609;SDS011;24367;51.640;9.566;2023-10-08T09:56:12;5.38;;;1.60;;
38609;SDS011;24367;51.640;9.566;2023-10-08T09:58:41;8.85;;;2.05;;
38609;SDS011;24367;51.640;9.566;2023-10-08T10:01:08;4.70;;;1.92;;
38609;SDS011;24367;51.640;9.566;2023-10-08T10:03:36;4.47;;;1.77;;
38609;SDS011;24367;51.640;9.566;2023-10-08T10:06:03;4.35;;;1.48;;
38609;SDS011;24367;51.640;9.566;2023-10-08T10:08:35;4.97;;;1.48;;
38609;SDS011;24367;51.640;9.566;2023-10-08T10:11:01;5.57;;;1.90;;
38609;SDS011;24367;51.640;9.566;2023-10-08T10:13:29;7.10;;;1.65;;
38609;SDS011;24367;51.640;9.566;2023-10-08T10:16:00;4.13;;;1.63;;
38609;SDS011;24367;51.640;9.566;2023-10-08T10:18:27;11.18;;;2.75;;
38609;SDS011;24367;51.640;9.566;2023-10-08T10:20:58;3.95;;;1.35;;
38609;SDS011;24367;51.640;9.566;2023-10-08T10:23:36;3.65;;;1.52;;
38609;SDS011;24367;51.640;9.566;2023-10-08T10:26:05;4.82;;;1.50;;
38609;SDS011;24367;51.640;9.566;2023-10-08T10:31:51;5.32;;;1.63;;
38609;SDS011;24367;51.640;9.566;2023-10-08T10:34:19;9.05;;;2.30;;
38609;SDS011;24367;51.640;9.566;2023-10-08T10:36:49;4.57;;;1.70;;
38609;SDS011;24367;51.640;9.566;2023-10-08T10:39:21;6.53;;;1.50;;
38609;SDS011;24367;51.640;9.566;2023-10-08T10:41:52;6.38;;;2.05;;
38609;SDS011;24367;51.640;9.566;2023-10-08T10:44:22;5.30;;;1.50;;
38609;SDS011;24367;51.640;9.566;2023-10-08T10:46:49;5.00;;;1.65;;
38609;SDS011;24367;51.640;9.566;2023-10-08T10:49:16;12.43;;;2.05;;
38609;SDS011;24367;51.640;9.566;2023-10-08T10:51:44;6.55;;;1.45;;
38609;SDS011;24367;51.640;9.566;2023-10-08T10:54:13;5.78;;;2.00;;
38609;SDS011;24367;51.640;9.566;2023-10-08T10:56:45;4.85;;;1.40;;
38609;SDS011;24367;51.640;9.566;2023-10-08T10:59:13;12.68;;;2.22;;
38609;SDS011;24367;51.640;9.566;2023-10-08T11:01:45;11.30;;;2.05;;
38609;SDS011;24367;51.640;9.566;2023-10-08T11:04:13;23.83;;;2.67;;
38609;SDS011;24367;51.640;9.566;2023-10-08T11:06:41;16.13;;;2.13;;
38609;SDS011;24367;51.640;9.566;2023-10-08T11:09:10;14.85;;;2.30;;
38609;SDS011;24367;51.640;9.566;2023-10-08T11:11:42;13.77;;;2.28;;
38609;SDS011;24367;51.640;9.566;2023-10-08T11:14:11;8.75;;;2.45;;
38609;SDS011;24367;51.640;9.566;2023-10-08T11:16:41;12.25;;;2.72;;
38609;SDS011;24367;51.640;9.566;2023-10-08T11:19:09;8.93;;;2.17;;
38609;SDS011;24367;51.640;9.566;2023-10-08T11:21:47;8.95;;;2.10;;
38609;SDS011;24367;51.640;9.566;2023-10-08T11:24:26;9.07;;;1.92;;
38609;SDS011;24367;51.640;9.566;2023-10-08T11:26:55;11.35;;;2.10;;
38609;SDS011;24367;51.640;9.566;2023-10-08T11:29:35;10.02;;;2.88;;
38609;SDS011;24367;51.640;9.566;2023-10-08T11:32:03;8.60;;;1.73;;
38609;SDS011;24367;51.640;9.566;2023-10-08T11:34:32;6.22;;;1.80;;
38609;SDS011;24367;51.640;9.566;2023-10-08T11:37:03;9.52;;;1.90;;
38609;SDS011;24367;51.640;9.566;2023-10-08T11:39:38;11.13;;;2.20;;
38609;SDS011;24367;51.640;9.566;2023-10-08T11:42:11;5.90;;;1.83;;
38609;SDS011;24367;51.640;9.566;2023-10-08T11:45:02;8.30;;;2.20;;
38609;SDS011;24367;51.640;9.566;2023-10-08T11:47:43;6.40;;;2.05;;
38609;SDS011;24367;51.640;9.566;2023-10-08T11:50:10;8.73;;;1.83;;
38609;SDS011;24367;51.640;9.566;2023-10-08T11:52:42;5.68;;;1.63;;
38609;SDS011;24367;51.640;9.566;2023-10-08T11:55:08;8.60;;;1.92;;
38609;SDS011;24367;51.640;9.566;2023-10-08T11:57:36;6.47;;;2.03;;
38609;SDS011;24367;51.640;9.566;2023-10-08T12:00:10;10.80;;;1.77;;
38609;SDS011;24367;51.640;9.566;2023-10-08T12:02:44;6.65;;;1.83;;
38609;SDS011;24367;51.640;9.566;2023-10-08T12:05:11;9.27;;;1.90;;
38609;SDS011;24367;51.640;9.566;2023-10-08T12:07:44;4.63;;;1.52;;
38609;SDS011;24367;51.640;9.566;2023-10-08T12:10:11;7.60;;;2.25;;
38609;SDS011;24367;51.640;9.566;2023-10-08T12:12:39;5.88;;;2.20;;
38609;SDS011;24367;51.640;9.566;2023-10-08T12:15:07;8.38;;;1.67;;
38609;SDS011;24367;51.640;9.566;2023-10-08T12:17:34;16.60;;;2.22;;
38609;SDS011;24367;51.640;9.566;2023-10-08T12:20:05;16.67;;;2.65;;
38609;SDS011;24367;51.640;9.566;2023-10-08T12:22:48;16.52;;;2.20;;
38609;SDS011;24367;51.640;9.566;2023-10-08T12:25:14;11.43;;;2.78;;
38609;SDS011;24367;51.640;9.566;2023-10-08T12:27:42;9.15;;;2.17;;
38609;SDS011;24367;51.640;9.566;2023-10-08T12:30:10;8.25;;;1.80;;
38609;SDS011;24367;51.640;9.566;2023-10-08T12:32:37;11.40;;;2.05;;
38609;SDS011;24367;51.640;9.566;2023-10-08T12:35:07;7.32;;;2.03;;
38609;SDS011;24367;51.640;9.566;2023-10-08T12:37:37;6.72;;;2.30;;
38609;SDS011;24367;51.640;9.566;2023-10-08T12:40:05;23.48;;;3.05;;
38609;SDS011;24367;51.640;9.566;2023-10-08T12:42:37;13.85;;;2.35;;
38609;SDS011;24367;51.640;9.566;2023-10-08T12:45:06;11.38;;;2.60;;
38609;SDS011;24367;51.640;9.566;2023-10-08T12:47:37;9.88;;;2.10;;
38609;SDS011;24367;51.640;9.566;2023-10-08T12:50:04;39.40;;;4.88;;
38609;SDS011;24367;51.640;9.566;2023-10-08T12:52:33;14.25;;;2.63;;
38609;SDS011;24367;51.640;9.566;2023-10-08T12:55:00;11.80;;;2.65;;
38609;SDS011;24367;51.640;9.566;2023-10-08T12:57:29;10.40;;;2.10;;
38609;SDS011;24367;51.640;9.566;2023-10-08T13:02:26;15.63;;;2.47;;
38609;SDS011;24367;51.640;9.566;2023-10-08T13:04:53;12.30;;;2.10;;
38609;SDS011;24367;51.640;9.566;2023-10-08T13:07:20;6.00;;;1.63;;
38609;SDS011;24367;51.640;9.566;2023-10-08T13:09:47;9.20;;;1.98;;
38609;SDS011;24367;51.640;9.566;2023-10-08T13:12:13;6.65;;;1.67;;
38609;SDS011;24367;51.640;9.566;2023-10-08T13:14:40;6.80;;;2.22;;
38609;SDS011;24367;51.640;9.566;2023-10-08T13:17:09;6.28;;;1.80;;
38609;SDS011;24367;51.640;9.566;2023-10-08T13:19:38;8.93;;;2.20;;
38609;SDS011;24367;51.640;9.566;2023-10-08T13:22:04;6.90;;;2.05;;
38609;SDS011;24367;51.640;9.566;2023-10-08T13:24:31;7.60;;;1.98;;
38609;SDS011;24367;51.640;9.566;2023-10-08T13:27:00;8.25;;;1.88;;
38609;SDS011;24367;51.640;9.566;2023-10-08T13:29:27;5.35;;;1.77;;
38609;SDS011;24367;51.640;9.566;2023-10-08T13:31:57;5.55;;;1.92;;
38609;SDS011;24367;51.640;9.566;2023-10-08T13:34:24;10.18;;;2.00;;
38609;SDS011;24367;51.640;9.566;2023-10-08T13:36:53;4.80;;;1.70;;
38609;SDS011;24367;51.640;9.566;2023-10-08T13:39:19;9.73;;;1.95;;
38609;SDS011;24367;51.640;9.566;2023-10-08T13:41:46;7.88;;;1.95;;
38609;SDS011;24367;51.640;9.566;2023-10-08T13:44:13;7.05;;;1.45;;
38609;SDS011;24367;51.640;9.566;2023-10-08T13:46:40;5.03;;;1.45;;
38609;SDS011;24367;51.640;9.566;2023-10-08T13:49:13;6.07;;;1.48;;
38609;SDS011;24367;51.640;9.566;2023-10-08T13:51:41;8.02;;;1.52;;
38609;SDS011;24367;51.640;9.566;2023-10-08T13:54:10;11.23;;;2.25;;
38609;SDS011;24367;51.640;9.566;2023-10-08T13:56:37;7.88;;;2.03;;
38609;SDS011;24367;51.640;9.566;2023-10-08T13:59:04;20.45;;;2.85;;
38609;SDS011;24367;51.640;9.566;2023-10-08T14:01:37;11.23;;;2.43;;
38609;SDS011;24367;51.640;9.566;2023-10-08T14:04:06;11.95;;;1.75;;
38609;SDS011;24367;51.640;9.566;2023-10-08T14:06:33;9.30;;;1.98;;
38609;SDS011;24367;51.640;9.566;2023-10-08T14:09:00;14.18;;;2.20;;
38609;SDS011;24367;51.640;9.566;2023-10-08T14:11:33;12.52;;;2.28;;
38609;SDS011;24367;51.640;9.566;2023-10-08T14:14:01;10.40;;;1.90;;
38609;SDS011;24367;51.640;9.566;2023-10-08T14:16:33;9.98;;;2.35;;
38609;SDS011;24367;51.640;9.566;2023-10-08T14:18:59;8.98;;;1.70;;
38609;SDS011;24367;51.640;9.566;2023-10-08T14:21:30;10.18;;;1.73;;
38609;SDS011;24367;51.640;9.566;2023-10-08T14:24:02;8.15;;;2.13;;
38609;SDS011;24367;51.640;9.566;2023-10-08T14:26:29;9.63;;;1.92;;
38609;SDS011;24367;51.640;9.566;2023-10-08T14:29:02;14.15;;;1.98;;
38609;SDS011;24367;51.640;9.566;2023-10-08T14:31:33;12.82;;;1.95;;
38609;SDS011;24367;51.640;9.566;2023-10-08T14:34:04;9.25;;;1.80;;
38609;SDS011;24367;51.640;9.566;2023-10-08T14:36:54;9.15;;;1.90;;
38609;SDS011;24367;51.640;9.566;2023-10-08T14:42:22;11.10;;;1.85;;
38609;SDS011;24367;51.640;9.566;2023-10-08T14:45:08;8.50;;;1.48;;
38609;SDS011;24367;51.640;9.566;2023-10-08T14:47:38;6.75;;;1.95;;
38609;SDS011;24367;51.640;9.566;2023-10-08T14:50:05;10.27;;;1.40;;
38609;SDS011;24367;51.640;9.566;2023-10-08T14:52:41;8.52;;;2.00;;
38609;SDS011;24367;51.640;9.566;2023-10-08T14:55:08;5.72;;;1.63;;
38609;SDS011;24367;51.640;9.566;2023-10-08T14:57:34;9.82;;;1.70;;
38609;SDS011;24367;51.640;9.566;2023-10-08T15:00:01;5.32;;;1.13;;
38609;SDS011;24367;51.640;9.566;2023-10-08T15:02:31;6.43;;;1.30;;
38609;SDS011;24367;51.640;9.566;2023-10-08T15:04:58;8.05;;;1.77;;
38609;SDS011;24367;51.640;9.566;2023-10-08T15:07:26;10.82;;;2.08;;
38609;SDS011;24367;51.640;9.566;2023-10-08T15:09:52;6.60;;;1.75;;
38609;SDS011;24367;51.640;9.566;2023-10-08T15:12:22;4.53;;;1.80;;
38609;SDS011;24367;51.640;9.566;2023-10-08T15:14:50;6.53;;;1.50;;
38609;SDS011;24367;51.640;9.566;2023-10-08T15:17:16;5.78;;;1.30;;